createdAt,value
2017-08-17T16:15:40.552Z,27.62
2017-08-17T16:16:40.378Z,27.63
2017-08-17T16:17:40.120Z,27.50
2017-08-17T16:18:40.241Z,27.49
2017-08-17T16:19:41.462Z,27.31
2017-08-17T16:20:40.045Z,27.43
2017-08-17T16:21:39.996Z,27.41
2017-08-17T16:22:39.947Z,27.43
2017-08-17T16:23:39.841Z,27.46
2017-08-17T16:24:39.805Z,27.44
2017-08-17T16:25:39.581Z,27.51
2017-08-17T16:26:39.621Z,27.74
2017-08-17T16:27:39.381Z,27.60
2017-08-17T16:28:39.516Z,27.62
2017-08-17T16:29:39.390Z,27.72
2017-08-17T16:30:39.383Z,28.07
2017-08-17T16:31:39.253Z,28.29
2017-08-17T16:32:39.185Z,28.39
2017-08-17T16:33:38.966Z,28.37
2017-08-17T16:34:39.019Z,28.36
2017-08-17T16:35:39.019Z,28.49
2017-08-17T16:36:38.751Z,28.14
2017-08-17T16:37:38.780Z,27.90
2017-08-17T16:38:38.639Z,27.96
2017-08-17T16:39:38.643Z,28.11
2017-08-17T16:40:38.621Z,28.06
2017-08-17T16:41:38.428Z,27.93
2017-08-17T16:42:38.330Z,28.04
2017-08-17T16:43:38.356Z,28.18
2017-08-17T16:44:38.279Z,27.94
2017-08-17T16:45:38.287Z,28.12
2017-08-17T16:46:38.131Z,28.02
2017-08-17T16:47:38.082Z,27.81
2017-08-17T16:48:38.029Z,27.92
2017-08-17T16:49:37.898Z,27.78
2017-08-17T16:50:37.878Z,28.02
2017-08-17T16:51:37.749Z,28.03
2017-08-17T16:52:37.666Z,27.97
2017-08-17T16:53:37.608Z,27.78
2017-08-17T16:54:37.528Z,27.85
2017-08-17T16:55:37.513Z,28.18
2017-08-17T16:56:37.434Z,27.97
2017-08-17T16:57:37.134Z,27.93
2017-08-17T16:58:37.318Z,27.81
2017-08-17T16:59:37.155Z,27.78
2017-08-17T17:00:37.166Z,27.78
2017-08-17T17:01:36.961Z,27.75
2017-08-17T17:02:36.959Z,27.94
2017-08-17T17:03:36.955Z,27.90
2017-08-17T17:04:36.788Z,27.82
2017-08-17T17:05:44.732Z,27.82
2017-08-17T17:07:42.989Z,28.17
2017-08-17T17:08:42.856Z,28.15
2017-08-17T17:09:55.169Z,28.49
2017-08-17T17:12:22.372Z,29.85
2017-08-17T17:13:17.166Z,30.49
2017-08-17T17:14:17.092Z,30.64
2017-08-17T17:15:17.110Z,30.67
2017-08-17T17:16:16.928Z,30.98
2017-08-17T17:17:19.693Z,30.16
2017-08-17T17:18:37.271Z,29.90
2017-08-17T17:19:37.092Z,29.14
2017-08-17T17:20:51.837Z,31.58
2017-08-17T17:21:51.832Z,32.84
2017-08-17T17:23:04.427Z,33.34
2017-08-17T17:24:04.319Z,32.84
2017-08-17T17:25:04.193Z,31.92
2017-08-17T17:26:04.126Z,32.43
2017-08-17T17:27:04.048Z,32.66
2017-08-17T17:51:43.206Z,29.27
2017-08-17T17:52:43.085Z,29.26
2017-08-17T17:53:43.081Z,29.19
2017-08-17T17:54:42.922Z,28.92
2017-08-17T17:55:42.896Z,29.06
